Time;durP1;ratioP1;P1;durP2;ratioP2;P2;SDS_P1;SDS_P2;PMS_P1;PMS_P2;Temp;Humidity;BMP_temperature;BMP_pressure;BME280_temperature;BME280_humidity;BME280_pressure;Samples;Min_cycle;Max_cycle;Signal;HPM_P1;HPM_P2
2023/06/22 00:01:30;;;;;;;3.43;3.10;;;;;;;;;;5073227;28;20188;-55
2023/06/22 00:03:56;;;;;;;3.23;2.93;;;;;;;;;;5073179;28;20566;-53
2023/06/22 00:06:22;;;;;;;3.20;2.90;;;;;;;;;;5073271;28;20223;-55
2023/06/22 00:08:49;;;;;;;3.93;2.90;;;;;;;;;;5073152;28;20736;-54
2023/06/22 00:11:15;;;;;;;3.77;3.20;;;;;;;;;;5073148;28;20214;-54
2023/06/22 00:13:41;;;;;;;3.50;2.83;;;;;;;;;;5072901;28;20227;-55
2023/06/22 00:16:07;;;;;;;4.30;3.10;;;;;;;;;;5073073;28;20204;-54
2023/06/22 00:18:33;;;;;;;3.07;2.70;;;;;;;;;;5072885;28;20200;-54
2023/06/22 00:21:00;;;;;;;3.40;3.10;;;;;;;;;;5072982;28;20258;-54
2023/06/22 00:23:26;;;;;;;3.10;2.90;;;;;;;;;;5072877;28;20187;-54
2023/06/22 00:25:54;;;;;;;3.30;3.00;;;;;;;;;;5072638;28;20232;-54
2023/06/22 00:28:20;;;;;;;3.60;3.30;;;;;;;;;;5072783;28;20207;-54
2023/06/22 00:30:46;;;;;;;3.47;3.10;;;;;;;;;;5072107;28;20252;-54
2023/06/22 00:33:12;;;;;;;3.30;3.00;;;;;;;;;;5072623;28;20257;-54
2023/06/22 00:35:41;;;;;;;3.13;2.90;;;;;;;;;;5072582;28;20266;-54
2023/06/22 00:38:08;;;;;;;4.47;3.27;;;;;;;;;;5072651;28;20196;-54
2023/06/22 00:40:34;;;;;;;3.50;3.20;;;;;;;;;;5072460;28;20639;-54
2023/06/22 00:43:01;;;;;;;3.57;2.90;;;;;;;;;;5072523;28;20219;-55
2023/06/22 00:45:27;;;;;;;3.70;3.40;;;;;;;;;;5072418;28;20200;-54
2023/06/22 00:47:54;;;;;;;3.83;3.20;;;;;;;;;;5072343;28;20548;-54
2023/06/22 00:50:21;;;;;;;3.40;3.10;;;;;;;;;;5072351;28;20690;-54
2023/06/22 00:52:48;;;;;;;3.30;3.00;;;;;;;;;;5072112;28;20251;-55
2023/06/22 00:55:17;;;;;;;3.40;3.10;;;;;;;;;;5072207;28;20671;-54
2023/06/22 00:57:44;;;;;;;4.13;3.10;;;;;;;;;;5072035;28;20662;-54
2023/06/22 01:00:16;;;;;;;3.73;3.40;;;;;;;;;;5072167;28;20192;-54
2023/06/22 01:02:45;;;;;;;3.60;3.30;;;;;;;;;;5072058;28;20205;-54
2023/06/22 01:05:13;;;;;;;4.77;3.77;;;;;;;;;;5072011;28;20225;-53
2023/06/22 01:07:42;;;;;;;3.20;2.93;;;;;;;;;;5071821;28;20206;-54
2023/06/22 01:10:11;;;;;;;3.57;3.27;;;;;;;;;;5072008;28;20261;-54
2023/06/22 01:12:40;;;;;;;3.27;3.00;;;;;;;;;;5071696;28;20229;-54
2023/06/22 01:15:11;;;;;;;3.30;3.00;;;;;;;;;;5071971;28;20207;-54
2023/06/22 01:17:40;;;;;;;3.70;3.30;;;;;;;;;;5071830;28;20202;-54
2023/06/22 01:20:08;;;;;;;3.90;3.27;;;;;;;;;;5071895;28;20210;-54
2023/06/22 01:22:50;;;;;;;3.60;3.30;;;;;;;;;;5071516;28;20664;-54
2023/06/22 01:25:19;;;;;;;3.80;3.50;;;;;;;;;;5071642;28;20321;-54
2023/06/22 01:27:51;;;;;;;3.23;2.93;;;;;;;;;;5071597;28;20206;-54
2023/06/22 01:30:19;;;;;;;3.70;3.40;;;;;;;;;;5071736;28;20257;-54
2023/06/22 01:32:45;;;;;;;4.13;3.60;;;;;;;;;;5071497;28;20231;-54
2023/06/22 01:35:12;;;;;;;3.60;3.30;;;;;;;;;;5071646;28;20618;-54
2023/06/22 01:37:38;;;;;;;3.67;3.37;;;;;;;;;;5071442;28;20199;-54
2023/06/22 01:40:05;;;;;;;3.70;3.40;;;;;;;;;;5071507;28;20584;-54
2023/06/22 01:42:32;;;;;;;4.43;3.50;;;;;;;;;;5069384;28;20210;-54
2023/06/22 01:44:59;;;;;;;3.57;3.27;;;;;;;;;;5071540;28;20223;-54
2023/06/22 01:47:27;;;;;;;4.30;3.80;;;;;;;;;;5071495;28;20195;-54
2023/06/22 01:49:53;;;;;;;4.17;3.40;;;;;;;;;;5071363;28;20799;-54
2023/06/22 01:52:21;;;;;;;4.40;3.80;;;;;;;;;;5071397;28;20231;-55
2023/06/22 01:54:48;;;;;;;3.87;3.57;;;;;;;;;;5071296;28;20272;-54
2023/06/22 01:57:14;;;;;;;3.70;3.40;;;;;;;;;;5071369;28;20203;-54
2023/06/22 01:59:46;;;;;;;3.97;3.63;;;;;;;;;;5062296;28;20208;-54
2023/06/22 02:02:14;;;;;;;4.00;3.70;;;;;;;;;;5070985;28;20241;-54
2023/06/22 02:04:44;;;;;;;4.13;3.73;;;;;;;;;;5071024;28;20219;-54
2023/06/22 02:07:18;;;;;;;3.90;3.60;;;;;;;;;;5071197;28;20201;-54
2023/06/22 02:09:45;;;;;;;4.27;3.97;;;;;;;;;;5069280;28;20612;-55
2023/06/22 02:12:12;;;;;;;4.30;3.90;;;;;;;;;;5071188;28;20296;-54
2023/06/22 02:14:38;;;;;;;4.57;4.17;;;;;;;;;;5070850;28;20642;-54
2023/06/22 02:17:07;;;;;;;4.60;4.13;;;;;;;;;;5071083;28;20229;-54
2023/06/22 02:19:33;;;;;;;4.07;3.60;;;;;;;;;;5070967;28;20223;-54
2023/06/22 02:22:00;;;;;;;3.77;3.47;;;;;;;;;;5068993;28;20227;-54
2023/06/22 02:24:26;;;;;;;4.53;4.13;;;;;;;;;;5070870;28;20673;-54
2023/06/22 02:26:52;;;;;;;4.87;4.47;;;;;;;;;;5070810;28;20245;-54
2023/06/22 02:29:18;;;;;;;4.20;3.80;;;;;;;;;;5070758;28;20210;-53
2023/06/22 02:31:44;;;;;;;4.27;3.87;;;;;;;;;;5057130;28;20207;-54
2023/06/22 02:34:10;;;;;;;4.40;3.97;;;;;;;;;;5050793;28;20235;-54
2023/06/22 02:36:36;;;;;;;3.80;3.50;;;;;;;;;;5050583;28;20210;-54
2023/06/22 02:39:04;;;;;;;4.60;4.20;;;;;;;;;;5050784;28;20188;-54
2023/06/22 02:41:30;;;;;;;4.00;3.63;;;;;;;;;;5050199;28;20353;-54
2023/06/22 02:43:56;;;;;;;5.80;4.00;;;;;;;;;;5050758;28;20632;-53
2023/06/22 02:46:22;;;;;;;5.17;4.10;;;;;;;;;;5050739;28;20237;-54
2023/06/22 02:48:48;;;;;;;4.20;3.90;;;;;;;;;;5050601;28;20323;-54
2023/06/22 02:51:15;;;;;;;4.57;4.17;;;;;;;;;;5050358;28;20199;-54
2023/06/22 02:53:44;;;;;;;5.97;4.33;;;;;;;;;;5051123;28;20234;-54
2023/06/22 02:56:12;;;;;;;4.60;4.03;;;;;;;;;;5054459;28;20204;-54
2023/06/22 02:58:38;;;;;;;4.47;4.00;;;;;;;;;;5054193;28;20196;-54
2023/06/22 03:01:04;;;;;;;4.70;4.30;;;;;;;;;;5054291;28;20689;-54
2023/06/22 03:03:30;;;;;;;4.47;4.07;;;;;;;;;;5053769;28;20322;-54
2023/06/22 03:05:56;;;;;;;4.90;4.40;;;;;;;;;;5053914;28;20764;-54
2023/06/22 03:08:22;;;;;;;5.17;4.27;;;;;;;;;;5053961;28;20278;-53
2023/06/22 03:10:48;;;;;;;4.60;4.20;;;;;;;;;;5053770;28;20606;-54
2023/06/22 03:13:16;;;;;;;5.10;4.70;;;;;;;;;;5059675;28;20230;-54
2023/06/22 03:15:42;;;;;;;4.70;4.27;;;;;;;;;;5073887;28;20257;-54
2023/06/22 03:18:08;;;;;;;4.43;4.03;;;;;;;;;;5073989;28;20191;-54
2023/06/22 03:20:34;;;;;;;4.87;4.40;;;;;;;;;;5073517;28;20199;-54
2023/06/22 03:23:00;;;;;;;5.03;4.53;;;;;;;;;;5072598;28;20217;-54
2023/06/22 03:25:26;;;;;;;5.10;4.60;;;;;;;;;;5073197;28;20240;-54
2023/06/22 03:27:52;;;;;;;5.60;4.20;;;;;;;;;;5073743;28;20207;-54
2023/06/22 03:30:19;;;;;;;5.33;4.80;;;;;;;;;;5073707;28;20196;-54
2023/06/22 03:32:46;;;;;;;5.50;4.73;;;;;;;;;;5073602;28;20226;-53
2023/06/22 03:35:13;;;;;;;5.30;4.80;;;;;;;;;;5071796;28;20199;-54
2023/06/22 03:37:40;;;;;;;5.80;4.50;;;;;;;;;;5073495;28;20665;-54
2023/06/22 03:40:07;;;;;;;4.80;4.30;;;;;;;;;;5073878;28;20287;-54
2023/06/22 03:42:34;;;;;;;5.03;4.63;;;;;;;;;;5071874;28;20764;-54
2023/06/22 03:45:01;;;;;;;5.43;4.70;;;;;;;;;;5073517;28;20283;-54
2023/06/22 03:47:28;;;;;;;4.93;4.53;;;;;;;;;;5073426;28;20195;-54
2023/06/22 03:49:54;;;;;;;5.63;5.13;;;;;;;;;;5073511;28;20226;-54
2023/06/22 03:52:21;;;;;;;5.07;4.63;;;;;;;;;;5068675;28;20203;-54
2023/06/22 03:54:47;;;;;;;5.87;4.53;;;;;;;;;;5053172;28;20235;-54
2023/06/22 03:57:13;;;;;;;5.03;4.63;;;;;;;;;;5053287;28;20204;-54
2023/06/22 03:59:39;;;;;;;4.80;4.30;;;;;;;;;;5053018;28;20200;-54
2023/06/22 04:02:05;;;;;;;7.07;4.57;;;;;;;;;;5053256;28;20214;-54
2023/06/22 04:04:33;;;;;;;5.27;4.57;;;;;;;;;;5053174;28;20353;-54
2023/06/22 04:06:59;;;;;;;5.20;4.70;;;;;;;;;;5052287;28;20235;-54
2023/06/22 04:09:25;;;;;;;4.63;4.23;;;;;;;;;;5053016;28;20196;-53
2023/06/22 04:11:51;;;;;;;4.93;4.43;;;;;;;;;;5053013;28;20258;-54
2023/06/22 04:14:17;;;;;;;4.63;4.13;;;;;;;;;;5063865;28;20231;-54
2023/06/22 04:16:43;;;;;;;5.20;4.70;;;;;;;;;;5072687;28;20202;-54
2023/06/22 04:19:15;;;;;;;5.13;4.67;;;;;;;;;;5072850;28;20202;-53
2023/06/22 04:21:44;;;;;;;4.80;4.40;;;;;;;;;;5072731;28;20219;-54
2023/06/22 04:24:10;;;;;;;5.80;4.47;;;;;;;;;;5070220;28;20207;-54
2023/06/22 04:26:37;;;;;;;5.70;4.23;;;;;;;;;;5072624;28;20245;-54
2023/06/22 04:29:05;;;;;;;5.00;4.50;;;;;;;;;;5072536;28;20260;-54
2023/06/22 04:31:31;;;;;;;4.97;4.20;;;;;;;;;;5064569;28;20191;-54
2023/06/22 04:33:57;;;;;;;8.77;4.20;;;;;;;;;;5064029;28;20235;-54
2023/06/22 04:36:23;;;;;;;4.67;4.27;;;;;;;;;;5072486;28;20196;-54
2023/06/22 04:38:52;;;;;;;4.67;4.27;;;;;;;;;;5072419;28;20218;-53
2023/06/22 04:41:23;;;;;;;7.03;4.77;;;;;;;;;;5070508;28;20203;-54
2023/06/22 04:43:53;;;;;;;5.50;4.13;;;;;;;;;;5072489;28;20257;-54
2023/06/22 04:46:19;;;;;;;4.53;4.13;;;;;;;;;;5071966;28;20652;-54
2023/06/22 04:48:45;;;;;;;4.20;3.80;;;;;;;;;;5072185;28;20203;-54
2023/06/22 04:51:11;;;;;;;8.93;4.13;;;;;;;;;;5072195;28;20199;-54
2023/06/22 04:53:37;;;;;;;3.97;3.33;;;;;;;;;;5053884;28;20703;-54
2023/06/22 04:56:04;;;;;;;4.33;3.83;;;;;;;;;;5052203;28;20211;-54
2023/06/22 04:58:32;;;;;;;4.07;3.60;;;;;;;;;;5051855;28;20565;-54
2023/06/22 05:00:58;;;;;;;4.33;3.60;;;;;;;;;;5051969;28;20698;-54
2023/06/22 05:03:25;;;;;;;5.43;3.20;;;;;;;;;;5061260;28;20187;-54
2023/06/22 05:05:51;;;;;;;4.53;3.47;;;;;;;;;;5071611;28;20228;-54
2023/06/22 05:08:18;;;;;;;3.90;3.60;;;;;;;;;;5072017;28;20204;-54
2023/06/22 05:10:44;;;;;;;4.50;3.77;;;;;;;;;;5071455;28;20597;-54
2023/06/22 05:13:11;;;;;;;4.40;3.73;;;;;;;;;;5065791;28;20307;-54
2023/06/22 05:15:39;;;;;;;3.87;3.43;;;;;;;;;;5051377;28;20200;-54
2023/06/22 05:18:06;;;;;;;6.40;4.30;;;;;;;;;;5051239;28;20211;-54
2023/06/22 05:20:34;;;;;;;3.20;2.90;;;;;;;;;;5051422;28;20200;-54
2023/06/22 05:22:59;;;;;;;3.80;3.50;;;;;;;;;;5051129;28;20200;-54
2023/06/22 05:25:26;;;;;;;3.80;3.50;;;;;;;;;;5071145;28;20802;-54
2023/06/22 05:27:52;;;;;;;3.83;3.50;;;;;;;;;;5071243;28;20204;-54
2023/06/22 05:30:20;;;;;;;5.23;3.80;;;;;;;;;;5071479;28;20206;-54
2023/06/22 05:32:46;;;;;;;6.27;3.20;;;;;;;;;;5070568;28;20203;-55
2023/06/22 05:35:12;;;;;;;3.80;3.23;;;;;;;;;;5063019;28;20208;-55
2023/06/22 05:37:38;;;;;;;3.90;3.43;;;;;;;;;;5060301;28;20205;-55
2023/06/22 05:40:04;;;;;;;2.93;2.70;;;;;;;;;;5071545;28;20671;-55
2023/06/22 05:42:30;;;;;;;4.07;3.60;;;;;;;;;;5057941;28;20563;-55
2023/06/22 05:44:58;;;;;;;3.33;3.03;;;;;;;;;;5063709;28;20230;-54
2023/06/22 05:47:26;;;;;;;3.47;3.17;;;;;;;;;;5053713;28;20204;-55
2023/06/22 05:49:52;;;;;;;3.20;3.00;;;;;;;;;;5060782;28;20218;-54
2023/06/22 05:52:18;;;;;;;4.57;2.60;;;;;;;;;;5055986;28;20211;-54
2023/06/22 05:54:44;;;;;;;5.63;3.07;;;;;;;;;;5051787;28;20591;-54
2023/06/22 05:57:09;;;;;;;3.00;2.70;;;;;;;;;;5051779;28;20208;-54
2023/06/22 05:59:35;;;;;;;3.27;2.97;;;;;;;;;;5051588;28;20200;-57
2023/06/22 06:02:01;;;;;;;3.10;2.80;;;;;;;;;;5051583;28;20200;-54
2023/06/22 06:04:29;;;;;;;4.40;2.97;;;;;;;;;;5057366;28;20736;-54
2023/06/22 06:06:55;;;;;;;3.33;2.63;;;;;;;;;;5071597;28;20209;-54
2023/06/22 06:09:27;;;;;;;4.37;3.37;;;;;;;;;;5070862;28;20195;-54
2023/06/22 06:11:52;;;;;;;3.53;2.70;;;;;;;;;;5072463;28;20207;-55
2023/06/22 06:14:19;;;;;;;3.23;2.77;;;;;;;;;;5069045;28;20591;-55
2023/06/22 06:16:45;;;;;;;3.20;2.63;;;;;;;;;;5067029;28;20207;-55
2023/06/22 06:19:11;;;;;;;3.50;2.80;;;;;;;;;;5062145;28;20200;-55
2023/06/22 06:21:39;;;;;;;3.23;2.93;;;;;;;;;;5071504;28;20559;-55
2023/06/22 06:24:05;;;;;;;3.40;3.10;;;;;;;;;;5069721;28;20201;-55
2023/06/22 06:26:32;;;;;;;3.50;2.80;;;;;;;;;;5055973;28;20430;-55
2023/06/22 06:29:00;;;;;;;3.37;3.07;;;;;;;;;;5052319;28;20671;-55
2023/06/22 06:31:30;;;;;;;3.30;3.00;;;;;;;;;;5055582;28;20201;-55
2023/06/22 06:33:56;;;;;;;4.27;3.07;;;;;;;;;;5054600;28;20228;-55
2023/06/22 06:36:22;;;;;;;3.47;2.90;;;;;;;;;;5055368;28;20198;-55
2023/06/22 06:38:49;;;;;;;3.83;3.07;;;;;;;;;;5055293;28;20735;-55
2023/06/22 06:41:15;;;;;;;4.70;3.07;;;;;;;;;;5058615;28;20303;-55
2023/06/22 06:43:45;;;;;;;3.23;2.93;;;;;;;;;;5064249;28;20202;-55
2023/06/22 06:46:11;;;;;;;3.10;2.80;;;;;;;;;;5058169;28;20223;-55
2023/06/22 06:48:37;;;;;;;3.40;2.97;;;;;;;;;;5062009;28;20207;-55
2023/06/22 06:51:03;;;;;;;3.00;2.73;;;;;;;;;;5055020;28;20218;-55
2023/06/22 06:53:29;;;;;;;3.40;2.83;;;;;;;;;;5074415;28;20629;-55
2023/06/22 06:55:56;;;;;;;3.57;3.27;;;;;;;;;;5075043;28;20207;-55
2023/06/22 06:58:22;;;;;;;3.97;2.90;;;;;;;;;;5074816;28;20281;-55
2023/06/22 07:00:48;;;;;;;3.10;2.80;;;;;;;;;;5057254;28;20294;-55
2023/06/22 07:03:14;;;;;;;3.10;2.80;;;;;;;;;;5054831;28;20196;-55
2023/06/22 07:05:40;;;;;;;3.30;3.10;;;;;;;;;;5074212;28;20227;-55
2023/06/22 07:08:06;;;;;;;4.50;3.03;;;;;;;;;;5074834;28;20195;-55
2023/06/22 07:10:32;;;;;;;3.10;2.80;;;;;;;;;;5074677;28;20203;-55
2023/06/22 07:13:00;;;;;;;3.03;2.80;;;;;;;;;;5074286;28;20206;-55
2023/06/22 07:15:26;;;;;;;3.23;3.00;;;;;;;;;;5074545;28;20199;-55
2023/06/22 07:17:51;;;;;;;4.20;3.00;;;;;;;;;;5056331;28;20227;-55
2023/06/22 07:20:19;;;;;;;3.77;3.00;;;;;;;;;;5054413;28;20242;-55
2023/06/22 07:22:45;;;;;;;3.00;2.80;;;;;;;;;;5073155;28;20198;-56
2023/06/22 07:25:14;;;;;;;2.97;2.70;;;;;;;;;;5074020;28;20199;-56
2023/06/22 07:27:42;;;;;;;7.63;3.00;;;;;;;;;;5074239;28;20208;-56
2023/06/22 07:30:10;;;;;;;3.63;3.00;;;;;;;;;;5074472;28;20196;-56
2023/06/22 07:32:36;;;;;;;3.33;3.10;;;;;;;;;;5074295;28;20290;-56
2023/06/22 07:35:03;;;;;;;2.93;2.73;;;;;;;;;;5073316;28;20233;-55
2023/06/22 07:37:30;;;;;;;3.43;3.13;;;;;;;;;;5074153;28;20202;-55
2023/06/22 07:39:59;;;;;;;4.70;3.20;;;;;;;;;;5072179;28;20202;-54
2023/06/22 07:42:25;;;;;;;3.30;3.00;;;;;;;;;;5053227;28;20614;-56
2023/06/22 07:44:51;;;;;;;4.10;2.97;;;;;;;;;;5054202;28;20191;-55
2023/06/22 07:47:19;;;;;;;3.30;3.00;;;;;;;;;;5065247;28;20688;-56
2023/06/22 07:49:45;;;;;;;3.97;3.07;;;;;;;;;;5062458;28;20229;-60
2023/06/22 07:52:11;;;;;;;4.97;2.77;;;;;;;;;;5070176;28;20732;-57
2023/06/22 07:54:37;;;;;;;3.47;3.17;;;;;;;;;;5059007;28;20320;-55
2023/06/22 07:57:03;;;;;;;3.70;3.30;;;;;;;;;;5071631;28;20204;-55
2023/06/22 07:59:29;;;;;;;3.33;3.03;;;;;;;;;;5063542;28;20207;-55
2023/06/22 08:01:55;;;;;;;3.20;2.90;;;;;;;;;;5053346;28;20245;-56
2023/06/22 08:04:23;;;;;;;3.80;3.47;;;;;;;;;;5053265;28;20218;-56
2023/06/22 08:06:49;;;;;;;4.07;2.90;;;;;;;;;;5053617;28;20214;-56
2023/06/22 08:09:15;;;;;;;3.93;3.13;;;;;;;;;;5073180;28;20198;-56
2023/06/22 08:11:41;;;;;;;4.30;3.80;;;;;;;;;;5062617;28;20202;-55
2023/06/22 08:14:07;;;;;;;3.60;3.30;;;;;;;;;;5053012;28;20314;-55
2023/06/22 08:16:33;;;;;;;3.87;3.50;;;;;;;;;;5052879;28;20307;-55
2023/06/22 08:18:59;;;;;;;5.87;3.63;;;;;;;;;;5052848;28;20191;-55
2023/06/22 08:21:26;;;;;;;3.83;3.20;;;;;;;;;;5052826;28;20574;-56
2023/06/22 08:23:52;;;;;;;3.47;3.17;;;;;;;;;;5054038;28;20295;-56
2023/06/22 08:26:18;;;;;;;3.83;3.40;;;;;;;;;;5065512;28;20645;-56
2023/06/22 08:28:44;;;;;;;3.10;2.90;;;;;;;;;;5063811;28;20291;-56
2023/06/22 08:31:12;;;;;;;3.70;3.40;;;;;;;;;;5063847;28;20201;-56
2023/06/22 08:33:43;;;;;;;4.37;3.20;;;;;;;;;;5059376;28;20282;-56
2023/06/22 08:36:10;;;;;;;3.70;3.40;;;;;;;;;;5071946;28;20207;-56
2023/06/22 08:38:38;;;;;;;4.33;3.47;;;;;;;;;;5065563;28;20194;-56
2023/06/22 08:41:04;;;;;;;3.77;3.33;;;;;;;;;;5055988;28;20271;-56
2023/06/22 08:43:30;;;;;;;3.87;3.57;;;;;;;;;;5068769;28;20193;-56
2023/06/22 08:45:56;;;;;;;3.80;3.50;;;;;;;;;;5068910;28;20747;-56
2023/06/22 08:48:22;;;;;;;4.40;4.00;;;;;;;;;;5052441;28;20205;-55
2023/06/22 08:50:48;;;;;;;4.20;3.80;;;;;;;;;;5051319;28;20237;-53
2023/06/22 08:53:14;;;;;;;3.77;3.43;;;;;;;;;;5059996;28;20218;-54
2023/06/22 08:55:41;;;;;;;3.77;3.47;;;;;;;;;;5059786;28;20210;-54
2023/06/22 08:58:07;;;;;;;4.00;3.57;;;;;;;;;;5059911;28;20214;-54
2023/06/22 09:00:34;;;;;;;4.63;4.20;;;;;;;;;;5061327;28;20206;-54
2023/06/22 09:03:26;;;;;;;4.40;4.00;;;;;;;;;;5068419;28;20727;-54
2023/06/22 09:05:52;;;;;;;4.83;3.90;;;;;;;;;;5066533;28;20344;-54
2023/06/22 09:08:18;;;;;;;4.70;3.87;;;;;;;;;;5065670;28;20293;-54
2023/06/22 09:10:45;;;;;;;4.43;4.03;;;;;;;;;;5071170;28;20198;-54
2023/06/22 09:13:11;;;;;;;5.23;4.70;;;;;;;;;;5071365;28;20224;-54
2023/06/22 09:15:37;;;;;;;6.37;4.40;;;;;;;;;;5070894;28;20676;-54
2023/06/22 09:18:03;;;;;;;4.87;3.63;;;;;;;;;;5064593;28;20207;-54
2023/06/22 09:20:29;;;;;;;4.50;3.90;;;;;;;;;;5050946;28;20205;-55
2023/06/22 09:22:55;;;;;;;4.27;3.90;;;;;;;;;;5051183;28;20568;-54
2023/06/22 09:25:21;;;;;;;4.20;3.83;;;;;;;;;;5051033;28;20235;-55
2023/06/22 09:27:49;;;;;;;4.17;3.87;;;;;;;;;;5051050;28;20212;-54
2023/06/22 09:30:16;;;;;;;4.50;4.10;;;;;;;;;;5050902;28;20222;-54
2023/06/22 09:32:43;;;;;;;5.00;4.60;;;;;;;;;;5051220;28;20222;-54
2023/06/22 09:35:10;;;;;;;4.47;4.13;;;;;;;;;;5051315;28;20433;-54
2023/06/22 09:37:36;;;;;;;4.00;3.70;;;;;;;;;;5050991;28;20575;-54
2023/06/22 09:40:08;;;;;;;6.83;4.63;;;;;;;;;;5062884;28;20293;-54
2023/06/22 09:42:34;;;;;;;4.80;4.27;;;;;;;;;;5070766;28;20206;-54
2023/06/22 09:45:01;;;;;;;4.83;4.33;;;;;;;;;;5070738;28;20657;-54
2023/06/22 09:47:27;;;;;;;4.80;4.40;;;;;;;;;;5057161;28;20625;-54
2023/06/22 09:49:55;;;;;;;4.77;4.37;;;;;;;;;;5050850;28;20238;-54
2023/06/22 09:52:21;;;;;;;4.80;4.40;;;;;;;;;;5050743;28;20208;-54
2023/06/22 09:54:50;;;;;;;4.90;4.50;;;;;;;;;;5050564;28;20447;-54
2023/06/22 09:57:16;;;;;;;5.00;4.60;;;;;;;;;;5054643;28;20200;-54
2023/06/22 09:59:42;;;;;;;5.63;5.17;;;;;;;;;;5067484;28;20321;-54
2023/06/22 10:02:09;;;;;;;5.10;4.60;;;;;;;;;;5068411;28;20263;-54
2023/06/22 10:04:35;;;;;;;5.27;4.87;;;;;;;;;;5069820;28;20218;-54
2023/06/22 10:07:02;;;;;;;5.07;4.67;;;;;;;;;;5070451;28;20679;-54
2023/06/22 10:09:28;;;;;;;8.13;5.63;;;;;;;;;;5070621;28;20195;-55
2023/06/22 10:11:54;;;;;;;5.70;5.20;;;;;;;;;;5068385;28;20203;-53
2023/06/22 10:14:20;;;;;;;9.30;5.07;;;;;;;;;;5070345;28;20714;-54
2023/06/22 10:16:46;;;;;;;5.97;5.43;;;;;;;;;;5070406;28;20293;-53
2023/06/22 10:19:13;;;;;;;5.43;4.93;;;;;;;;;;5070554;28;20288;-54
2023/06/22 10:21:39;;;;;;;5.50;4.97;;;;;;;;;;5068105;28;20206;-54
2023/06/22 10:24:06;;;;;;;6.97;5.57;;;;;;;;;;5070569;28;20212;-53
2023/06/22 10:26:32;;;;;;;6.37;5.67;;;;;;;;;;5060648;28;20242;-53
2023/06/22 10:28:58;;;;;;;5.97;5.30;;;;;;;;;;5051622;28;20210;-54
2023/06/22 10:31:24;;;;;;;5.47;4.97;;;;;;;;;;5068427;28;20203;-53
2023/06/22 10:33:50;;;;;;;5.87;5.30;;;;;;;;;;5064422;28;20212;-54
2023/06/22 10:36:20;;;;;;;6.00;5.40;;;;;;;;;;5064040;28;20198;-55
2023/06/22 10:38:47;;;;;;;5.97;5.47;;;;;;;;;;5070920;28;20286;-54
2023/06/22 10:41:13;;;;;;;6.10;5.60;;;;;;;;;;5057204;28;20207;-54
2023/06/22 10:43:39;;;;;;;8.10;5.80;;;;;;;;;;5054244;28;20573;-54
2023/06/22 10:46:05;;;;;;;6.00;5.50;;;;;;;;;;5050963;28;20290;-54
2023/06/22 10:48:31;;;;;;;7.83;5.50;;;;;;;;;;5050734;28;20199;-55
2023/06/22 10:50:57;;;;;;;5.67;5.17;;;;;;;;;;5050338;28;20939;-55
2023/06/22 10:53:25;;;;;;;6.70;5.27;;;;;;;;;;5051945;28;20259;-54
2023/06/22 10:55:52;;;;;;;6.13;5.60;;;;;;;;;;5055903;28;20218;-54
2023/06/22 10:58:19;;;;;;;6.70;5.73;;;;;;;;;;5055974;28;20506;-54
2023/06/22 11:00:45;;;;;;;5.77;5.27;;;;;;;;;;5050059;28;20246;-54
2023/06/22 11:03:11;;;;;;;6.53;5.87;;;;;;;;;;5050864;28;20559;-54
2023/06/22 11:05:37;;;;;;;5.57;5.07;;;;;;;;;;5063899;28;20224;-55
2023/06/22 11:08:04;;;;;;;6.13;5.53;;;;;;;;;;5070756;28;20255;-55
2023/06/22 11:10:31;;;;;;;6.23;5.33;;;;;;;;;;5059290;28;20194;-55
2023/06/22 11:12:57;;;;;;;6.20;4.97;;;;;;;;;;5050711;28;20217;-55
2023/06/22 11:15:23;;;;;;;6.13;5.63;;;;;;;;;;5054789;28;20227;-55
2023/06/22 11:17:49;;;;;;;6.03;5.40;;;;;;;;;;5058489;28;20212;-55
2023/06/22 11:20:16;;;;;;;6.20;5.60;;;;;;;;;;5064780;28;20284;-54
2023/06/22 11:22:42;;;;;;;6.07;5.57;;;;;;;;;;5074123;28;20718;-55
2023/06/22 11:25:08;;;;;;;5.73;5.23;;;;;;;;;;5066577;28;20201;-55
2023/06/22 11:27:36;;;;;;;5.83;5.33;;;;;;;;;;5054132;28;20206;-55
2023/06/22 11:30:02;;;;;;;6.40;5.80;;;;;;;;;;5056073;28;20230;-55
2023/06/22 11:32:28;;;;;;;6.47;5.93;;;;;;;;;;5056952;28;20248;-54
2023/06/22 11:34:54;;;;;;;6.60;6.10;;;;;;;;;;5053416;28;20229;-56
2023/06/22 11:37:20;;;;;;;6.63;6.00;;;;;;;;;;5053152;28;20204;-55
2023/06/22 11:39:46;;;;;;;8.10;6.20;;;;;;;;;;5053724;28;20225;-55
2023/06/22 11:42:12;;;;;;;7.13;6.40;;;;;;;;;;5056121;28;20288;-55
2023/06/22 11:44:43;;;;;;;7.43;6.73;;;;;;;;;;5064163;28;20196;-55
2023/06/22 11:47:09;;;;;;;6.70;6.10;;;;;;;;;;5060632;28;20207;-55
2023/06/22 11:49:35;;;;;;;7.77;6.97;;;;;;;;;;5073775;28;20196;-55
2023/06/22 11:52:01;;;;;;;7.60;6.80;;;;;;;;;;5073627;28;20217;-55
2023/06/22 11:54:27;;;;;;;7.57;6.87;;;;;;;;;;5073623;28;20606;-55
2023/06/22 11:56:53;;;;;;;7.87;6.53;;;;;;;;;;5070001;28;20252;-55
2023/06/22 11:59:22;;;;;;;9.00;6.73;;;;;;;;;;5067985;28;20263;-55
2023/06/22 12:01:51;;;;;;;6.70;6.10;;;;;;;;;;5073442;28;20215;-55
2023/06/22 12:04:17;;;;;;;9.73;7.47;;;;;;;;;;5073456;28;20268;-55
2023/06/22 12:06:43;;;;;;;7.73;7.10;;;;;;;;;;5068687;28;20742;-54
2023/06/22 12:09:10;;;;;;;8.47;7.67;;;;;;;;;;5053052;28;20200;-54
2023/06/22 12:11:36;;;;;;;8.90;7.70;;;;;;;;;;5053137;28;20195;-54
2023/06/22 12:14:02;;;;;;;7.50;6.87;;;;;;;;;;5052848;28;20281;-53
2023/06/22 12:16:28;;;;;;;6.70;6.20;;;;;;;;;;5053080;28;20227;-54
2023/06/22 12:18:55;;;;;;;8.10;6.43;;;;;;;;;;5053009;28;20240;-54
2023/06/22 12:21:21;;;;;;;7.90;7.20;;;;;;;;;;5053376;28;20212;-53
2023/06/22 12:23:47;;;;;;;6.77;6.00;;;;;;;;;;5053156;28;20199;-54
2023/06/22 12:26:13;;;;;;;7.23;6.63;;;;;;;;;;5054498;28;20621;-56
2023/06/22 12:28:42;;;;;;;7.47;6.87;;;;;;;;;;5053272;28;20702;-55
2023/06/22 12:31:08;;;;;;;8.43;7.63;;;;;;;;;;5053088;28;20237;-53
2023/06/22 12:33:34;;;;;;;8.50;7.33;;;;;;;;;;5054121;28;20632;-54
2023/06/22 12:36:01;;;;;;;6.77;6.27;;;;;;;;;;5066338;28;20205;-54
2023/06/22 12:38:27;;;;;;;6.27;5.77;;;;;;;;;;5070875;28;20731;-54
2023/06/22 12:40:53;;;;;;;6.90;6.30;;;;;;;;;;5072663;28;20287;-54
2023/06/22 12:43:19;;;;;;;6.53;6.03;;;;;;;;;;5072536;28;20192;-55
2023/06/22 12:45:45;;;;;;;6.90;6.30;;;;;;;;;;5058976;28;20202;-54
2023/06/22 12:48:12;;;;;;;7.63;6.83;;;;;;;;;;5065614;28;20207;-54
2023/06/22 12:50:38;;;;;;;6.90;6.23;;;;;;;;;;5071275;28;20201;-54
2023/06/22 12:53:06;;;;;;;9.40;6.30;;;;;;;;;;5049252;28;20597;-54
2023/06/22 12:55:32;;;;;;;6.37;5.57;;;;;;;;;;5051782;28;20617;-55
2023/06/22 12:57:58;;;;;;;7.17;6.57;;;;;;;;;;5054748;28;20211;-55
2023/06/22 13:00:24;;;;;;;6.13;5.53;;;;;;;;;;5053347;28;20205;-55
2023/06/22 13:02:50;;;;;;;6.17;5.57;;;;;;;;;;5052100;28;20290;-55
2023/06/22 13:05:16;;;;;;;5.20;4.70;;;;;;;;;;5052287;28;20298;-55
2023/06/22 13:07:42;;;;;;;6.40;5.53;;;;;;;;;;5052278;28;20732;-55
2023/06/22 13:10:10;;;;;;;6.50;6.00;;;;;;;;;;5051067;28;20202;-55
2023/06/22 13:12:36;;;;;;;6.00;5.50;;;;;;;;;;5052255;28;20201;-55
2023/06/22 13:15:03;;;;;;;6.67;6.00;;;;;;;;;;5051895;28;20226;-55
2023/06/22 13:17:29;;;;;;;6.27;5.83;;;;;;;;;;5052138;28;20634;-55
2023/06/22 13:19:55;;;;;;;6.67;6.03;;;;;;;;;;5051430;28;20668;-55
2023/06/22 13:22:29;;;;;;;6.50;5.80;;;;;;;;;;5051771;28;20238;-55
2023/06/22 13:24:55;;;;;;;6.93;6.23;;;;;;;;;;5051815;28;20264;-55
2023/06/22 13:27:22;;;;;;;9.00;6.77;;;;;;;;;;5051376;28;20691;-55
2023/06/22 13:29:48;;;;;;;8.27;7.00;;;;;;;;;;5051690;28;20743;-55
2023/06/22 13:32:14;;;;;;;7.10;6.50;;;;;;;;;;5057086;28;20731;-54
2023/06/22 13:34:40;;;;;;;7.13;6.43;;;;;;;;;;5066635;28;20217;-55
2023/06/22 13:37:06;;;;;;;6.50;6.00;;;;;;;;;;5069919;28;20236;-55
2023/06/22 13:39:32;;;;;;;7.47;6.20;;;;;;;;;;5055719;28;20569;-54
2023/06/22 13:41:58;;;;;;;7.10;6.50;;;;;;;;;;5051142;28;20200;-55
2023/06/22 13:44:28;;;;;;;7.37;6.67;;;;;;;;;;5065539;28;20291;-54
2023/06/22 13:46:54;;;;;;;6.83;6.30;;;;;;;;;;5065150;28;20208;-55
2023/06/22 13:49:21;;;;;;;7.33;6.67;;;;;;;;;;5055030;28;20301;-55
2023/06/22 13:51:48;;;;;;;8.97;7.07;;;;;;;;;;5058655;28;20665;-55
2023/06/22 13:54:14;;;;;;;7.50;6.33;;;;;;;;;;5051066;28;20224;-55
2023/06/22 13:56:40;;;;;;;6.90;6.40;;;;;;;;;;5051625;28;20210;-55
2023/06/22 13:59:09;;;;;;;8.00;7.30;;;;;;;;;;5051325;28;20242;-54
2023/06/22 14:01:36;;;;;;;7.10;6.50;;;;;;;;;;5059459;28;20207;-54
2023/06/22 14:04:02;;;;;;;8.00;6.50;;;;;;;;;;5052388;28;20242;-54
2023/06/22 14:06:28;;;;;;;6.87;6.37;;;;;;;;;;5066356;28;20677;-53
2023/06/22 14:08:54;;;;;;;6.93;6.33;;;;;;;;;;5071283;28;20209;-53
2023/06/22 14:11:20;;;;;;;7.90;7.10;;;;;;;;;;5064371;28;20285;-54
2023/06/22 14:13:46;;;;;;;7.00;6.40;;;;;;;;;;5056390;28;20217;-54
2023/06/22 14:16:12;;;;;;;7.60;6.90;;;;;;;;;;5071589;28;20198;-53
2023/06/22 14:18:40;;;;;;;8.70;7.40;;;;;;;;;;5071411;28;20194;-52
2023/06/22 14:21:06;;;;;;;8.23;7.43;;;;;;;;;;5069678;28;20634;-53
2023/06/22 14:23:32;;;;;;;10.03;8.17;;;;;;;;;;5053368;28;20229;-53
2023/06/22 14:25:58;;;;;;;8.87;8.03;;;;;;;;;;5066694;28;20422;-54
2023/06/22 14:28:23;;;;;;;8.63;7.77;;;;;;;;;;5057597;28;20240;-52
2023/06/22 14:30:49;;;;;;;8.60;7.90;;;;;;;;;;5070359;28;20733;-53
2023/06/22 14:33:15;;;;;;;8.60;7.90;;;;;;;;;;5059616;28;20197;-52
2023/06/22 14:35:43;;;;;;;9.20;8.40;;;;;;;;;;5071001;28;20230;-53
2023/06/22 14:38:09;;;;;;;12.17;10.87;;;;;;;;;;5057987;28;20223;-52
2023/06/22 14:40:35;;;;;;;12.27;10.90;;;;;;;;;;5050924;28;20188;-49